createdAt,value
2018-09-29T00:01:58.793Z,4.93
2018-09-29T00:07:02.122Z,8.50
2018-09-29T00:12:05.417Z,8.63
2018-09-29T00:17:08.844Z,4.43
2018-09-29T00:22:12.185Z,4.57
2018-09-29T00:27:15.479Z,6.63
2018-09-29T00:32:18.757Z,6.40
2018-09-29T00:37:22.169Z,4.97
2018-09-29T00:42:25.502Z,6.63
2018-09-29T00:47:28.810Z,9.60
2018-09-29T00:52:32.257Z,4.93
2018-09-29T00:57:35.589Z,7.53
2018-09-29T01:02:38.966Z,7.97
2018-09-29T01:07:42.348Z,6.37
2018-09-29T01:12:45.674Z,5.63
2018-09-29T01:17:49.040Z,4.60
2018-09-29T01:22:52.304Z,7.87
2018-09-29T01:27:55.780Z,5.60
2018-09-29T01:32:59.076Z,4.60
2018-09-29T01:38:02.504Z,3.10
2018-09-29T01:43:05.916Z,7.07
2018-09-29T01:48:09.263Z,5.20
2018-09-29T01:53:12.563Z,6.83
2018-09-29T01:58:15.893Z,4.43
2018-09-29T02:03:19.325Z,4.57
2018-09-29T02:08:22.715Z,5.77
2018-09-29T02:13:26.102Z,3.10
2018-09-29T02:18:29.755Z,6.50
2018-09-29T02:23:33.162Z,5.57
2018-09-29T02:28:36.535Z,4.07
2018-09-29T02:33:39.860Z,6.00
2018-09-29T02:38:43.165Z,3.57
2018-09-29T02:43:46.476Z,6.87
2018-09-29T02:48:49.889Z,4.17
2018-09-29T02:53:53.220Z,6.53
2018-09-29T02:58:56.557Z,2.73
2018-09-29T03:03:59.884Z,6.40
2018-09-29T03:09:03.712Z,5.40
2018-09-29T03:14:07.010Z,4.17
2018-09-29T03:19:10.328Z,2.43
2018-09-29T03:24:13.633Z,5.87
2018-09-29T03:29:16.966Z,4.43
2018-09-29T03:34:20.317Z,5.63
2018-09-29T03:39:23.664Z,4.77
2018-09-29T03:44:27.052Z,2.53
2018-09-29T03:49:30.351Z,4.03
2018-09-29T03:54:33.669Z,4.50
2018-09-29T03:59:37.040Z,2.30
2018-09-29T04:04:40.380Z,2.83
2018-09-29T04:09:43.719Z,4.77
2018-09-29T04:14:47.174Z,4.63
2018-09-29T04:19:50.540Z,5.00
2018-09-29T04:24:53.828Z,2.20
2018-09-29T04:29:57.135Z,2.90
2018-09-29T04:35:00.461Z,4.17
2018-09-29T04:40:03.950Z,5.13
2018-09-29T04:45:07.282Z,3.90
2018-09-29T04:50:10.640Z,3.77
2018-09-29T04:55:13.941Z,4.53
2018-09-29T05:00:17.496Z,4.80
2018-09-29T05:05:20.817Z,4.30
2018-09-29T05:10:24.157Z,5.40
2018-09-29T05:15:27.520Z,5.03
2018-09-29T05:20:30.880Z,4.30
2018-09-29T05:25:34.201Z,4.57
2018-09-29T05:30:37.608Z,4.70
2018-09-29T05:35:40.944Z,6.67
2018-09-29T05:40:44.416Z,4.47
2018-09-29T05:45:48.622Z,13.17
2018-09-29T05:50:52.033Z,11.90
2018-09-29T05:55:55.345Z,9.13
2018-09-29T06:00:58.655Z,6.67
2018-09-29T06:06:02.140Z,7.43
2018-09-29T06:11:05.526Z,4.17
2018-09-29T06:16:09.652Z,5.90
2018-09-29T06:21:12.977Z,6.43
2018-09-29T06:26:16.301Z,3.80
2018-09-29T06:31:19.668Z,6.80
2018-09-29T06:36:23.038Z,5.40
2018-09-29T06:41:26.398Z,7.13
2018-09-29T06:46:29.741Z,3.87
2018-09-29T06:51:33.298Z,7.03
2018-09-29T06:56:36.604Z,7.80
2018-09-29T07:01:39.921Z,8.40
2018-09-29T07:06:43.309Z,9.13
2018-09-29T07:11:46.628Z,5.77
2018-09-29T07:16:49.960Z,7.23
2018-09-29T07:21:53.459Z,9.53
2018-09-29T07:26:56.707Z,8.90
2018-09-29T07:32:00.029Z,6.37
2018-09-29T07:37:03.509Z,6.40
2018-09-29T07:42:07.141Z,5.50
2018-09-29T07:47:10.485Z,4.43
2018-09-29T07:52:13.800Z,7.17
2018-09-29T07:57:17.139Z,4.93
2018-09-29T08:02:20.473Z,11.80
2018-09-29T08:07:23.801Z,12.90
2018-09-29T08:12:27.191Z,6.97
2018-09-29T08:17:30.533Z,8.17
2018-09-29T08:22:33.841Z,7.27
2018-09-29T08:27:37.151Z,6.93
2018-09-29T08:32:40.473Z,4.43
2018-09-29T08:37:43.825Z,9.83
2018-09-29T08:42:47.124Z,9.13
2018-09-29T08:47:50.432Z,9.43
2018-09-29T08:52:53.736Z,6.70
2018-09-29T08:57:57.273Z,7.23
2018-09-29T09:03:00.624Z,9.17
2018-09-29T09:08:04.181Z,6.37
2018-09-29T09:13:07.463Z,8.03
2018-09-29T09:18:10.805Z,9.80
2018-09-29T09:23:14.128Z,7.53
2018-09-29T09:28:17.436Z,18.03
2018-09-29T09:33:20.776Z,3.52
2018-09-29T09:38:24.054Z,6.30
2018-09-29T09:43:27.371Z,7.13
2018-09-29T09:48:30.680Z,6.93
2018-09-29T09:53:34.042Z,7.83
2018-09-29T09:58:37.876Z,4.63
2018-09-29T10:03:41.193Z,7.33
2018-09-29T10:08:44.477Z,4.90
2018-09-29T10:13:48.064Z,5.53
2018-09-29T10:18:51.357Z,3.63
2018-09-29T10:23:54.665Z,4.63
2018-09-29T10:28:58.085Z,6.80
2018-09-29T10:34:01.353Z,4.80
2018-09-29T10:39:07.928Z,5.30
2018-09-29T10:44:11.928Z,5.03
2018-09-29T10:49:15.180Z,5.83
2018-09-29T10:54:18.499Z,6.70
2018-09-29T10:59:21.794Z,4.40
2018-09-29T11:04:25.287Z,4.40
2018-09-29T11:09:28.572Z,6.27
2018-09-29T11:14:31.957Z,6.33
2018-09-29T11:19:35.198Z,8.70
2018-09-29T11:24:38.480Z,5.03
2018-09-29T11:29:41.890Z,4.45
2018-09-29T11:34:45.178Z,4.47
2018-09-29T11:39:48.461Z,3.10
2018-09-29T11:44:51.894Z,7.75
2018-09-29T11:49:55.161Z,6.00
2018-09-29T11:54:58.443Z,4.70
2018-09-29T12:00:01.918Z,4.03
2018-09-29T12:05:05.424Z,4.12
2018-09-29T12:10:08.692Z,3.72
2018-09-29T12:15:12.053Z,3.77
2018-09-29T12:20:15.537Z,3.77
2018-09-29T12:25:18.824Z,3.53
2018-09-29T12:30:22.096Z,5.72
2018-09-29T12:35:25.372Z,2.80
2018-09-29T12:40:29.022Z,5.33
2018-09-29T12:45:32.300Z,3.72
2018-09-29T12:50:35.584Z,4.70
2018-09-29T12:55:38.873Z,3.75
2018-09-29T13:00:42.227Z,4.10
2018-09-29T13:05:45.518Z,3.77
2018-09-29T13:10:48.806Z,4.60
2018-09-29T13:15:52.548Z,3.27
2018-09-29T13:26:33.154Z,3.17
2018-09-29T13:31:36.436Z,1.45
2018-09-29T13:36:39.724Z,4.87
2018-09-29T13:41:43.024Z,3.15
2018-09-29T13:46:47.543Z,2.62
2018-09-29T13:51:50.827Z,5.78
2018-09-29T13:56:54.120Z,6.33
2018-09-29T14:07:06.988Z,4.80
2018-09-29T14:12:10.298Z,3.70
2018-09-29T14:17:13.581Z,4.35
2018-09-29T14:22:16.864Z,2.45
2018-09-29T14:27:20.157Z,3.33
2018-09-29T14:32:23.454Z,4.35
2018-09-29T14:37:26.784Z,5.90
2018-09-29T14:42:30.080Z,3.65
2018-09-29T14:47:33.382Z,3.42
2018-09-29T14:52:36.838Z,3.50
2018-09-29T14:57:40.132Z,6.40
2018-09-29T15:02:43.436Z,2.47
2018-09-29T15:07:46.747Z,4.00
2018-09-29T15:12:50.066Z,3.45
2018-09-29T15:17:53.392Z,3.67
2018-09-29T15:22:56.699Z,4.30
2018-09-29T15:28:00.054Z,3.75
2018-09-29T15:33:03.476Z,5.72
2018-09-29T15:38:06.752Z,2.67
2018-09-29T15:43:10.081Z,1.90
2018-09-29T15:48:13.401Z,1.75
2018-09-29T15:53:16.696Z,3.50
2018-09-29T15:58:20.013Z,4.37
2018-09-29T16:03:23.310Z,3.45
2018-09-29T16:08:26.614Z,6.67
2018-09-29T16:13:29.917Z,5.47
2018-09-29T16:18:33.323Z,4.53
2018-09-29T16:23:36.615Z,6.78
2018-09-29T16:28:39.896Z,3.83
2018-09-29T16:33:43.179Z,3.20
2018-09-29T16:38:46.479Z,5.77
2018-09-29T16:43:50.168Z,7.07
2018-09-29T16:48:53.495Z,7.20
2018-09-29T16:53:56.875Z,3.90
2018-09-29T16:59:00.198Z,3.07
2018-09-29T17:04:03.617Z,6.80
2018-09-29T17:09:09.429Z,2.73
2018-09-29T17:14:12.742Z,6.83
2018-09-29T17:19:16.117Z,11.13
2018-09-29T17:24:19.444Z,12.80
2018-09-29T17:29:22.764Z,11.27
2018-09-29T17:34:26.078Z,7.03
2018-09-29T17:39:29.400Z,18.13
2018-09-29T17:44:32.755Z,10.80
2018-09-29T17:49:36.160Z,9.40
2018-09-29T17:54:39.498Z,9.43
2018-09-29T17:59:42.809Z,12.17
2018-09-29T18:04:46.136Z,15.93
2018-09-29T18:09:49.469Z,11.83
2018-09-29T18:14:52.797Z,10.77
2018-09-29T18:19:56.116Z,10.40
2018-09-29T18:24:59.462Z,12.37
2018-09-29T18:30:03.254Z,14.40
2018-09-29T18:35:06.693Z,15.53
2018-09-29T18:40:10.066Z,9.27
2018-09-29T18:45:13.471Z,12.67
2018-09-29T18:50:16.849Z,11.50
2018-09-29T18:55:20.176Z,12.80
2018-09-29T19:00:23.496Z,15.83
2018-09-29T19:05:26.884Z,11.87
2018-09-29T19:10:30.951Z,12.63
2018-09-29T19:15:34.928Z,12.03
2018-09-29T19:20:39.055Z,9.13
2018-09-29T19:25:42.810Z,13.70
2018-09-29T19:30:46.535Z,15.33
2018-09-29T19:35:50.692Z,15.43
2018-09-29T20:03:33.166Z,9.67
2018-09-29T20:08:36.927Z,8.47
2018-09-29T20:13:40.297Z,8.17
2018-09-29T20:18:43.826Z,9.13
2018-09-29T20:23:47.187Z,7.83
2018-09-29T21:02:37.640Z,16.77
2018-09-29T21:07:41.045Z,14.33
2018-09-29T21:12:44.451Z,15.17
2018-09-29T21:17:47.781Z,18.23
2018-09-29T21:22:51.106Z,13.83
2018-09-29T21:27:54.573Z,13.47
2018-09-29T21:32:57.907Z,18.47
2018-09-29T21:38:01.276Z,15.37
2018-09-29T21:43:04.665Z,16.40
2018-09-29T21:48:08.021Z,10.20
2018-09-29T21:53:11.349Z,9.77
2018-09-29T21:58:14.852Z,9.63
2018-09-29T22:03:18.161Z,11.10
2018-09-29T22:08:21.467Z,12.67
2018-09-29T22:13:24.765Z,10.80
2018-09-29T22:18:28.080Z,9.33
2018-09-29T22:23:31.588Z,9.20
2018-09-29T22:28:34.924Z,5.03
2018-09-29T22:33:38.268Z,7.67
2018-09-29T22:38:41.618Z,5.63
2018-09-29T22:43:44.929Z,6.70
2018-09-29T22:48:48.331Z,5.40
2018-09-29T22:53:51.940Z,5.07
2018-09-29T22:58:55.237Z,7.13
2018-09-29T23:03:58.620Z,6.73
2018-09-29T23:09:02.509Z,5.70
2018-09-29T23:14:06.731Z,3.63
2018-09-29T23:19:11.255Z,5.10
2018-09-29T23:24:14.571Z,5.67
2018-09-29T23:29:17.864Z,5.30
2018-09-29T23:34:21.148Z,6.43
2018-09-29T23:39:24.659Z,4.37
2018-09-29T23:44:27.969Z,5.33
2018-09-29T23:49:31.441Z,7.03
2018-09-29T23:54:34.875Z,4.15
2018-09-29T23:59:38.505Z,3.27
